sensor_id;sensor_type;location;lat;lon;timestamp;pressure;altitude;pressure_sealevel;temperature;humidity
82949;BME280;72736;50.236;18.876;2024-02-21T08:51:27;99133.72;;;7.68;78.67
82949;BME280;72736;50.236;18.876;2024-02-21T08:56:33;99128.31;;;8.00;78.08
82949;BME280;72736;50.236;18.876;2024-02-21T09:01:40;99119.70;;;8.36;77.63
82949;BME280;72736;50.236;18.876;2024-02-21T09:06:46;99107.44;;;8.74;76.69
82949;BME280;72736;50.236;18.876;2024-02-21T09:11:52;99113.96;;;8.88;76.01
82949;BME280;72736;50.236;18.876;2024-02-21T09:16:58;99120.16;;;9.01;75.77
82949;BME280;72736;50.236;18.876;2024-02-21T09:22:06;99119.59;;;9.05;74.86
82949;BME280;72736;50.236;18.876;2024-02-21T09:27:12;99119.59;;;9.14;74.62
82949;BME280;72736;50.236;18.876;2024-02-21T09:32:18;99120.73;;;9.30;74.25
82949;BME280;72736;50.236;18.876;2024-02-21T09:37:24;99119.26;;;9.32;73.32
82949;BME280;72736;50.236;18.876;2024-02-21T09:42:38;99120.70;;;9.34;73.21
82949;BME280;72736;50.236;18.876;2024-02-21T09:47:55;99126.53;;;9.32;73.04
82949;BME280;72736;50.236;18.876;2024-02-21T09:53:08;99127.48;;;9.23;73.08
82949;BME280;72736;50.236;18.876;2024-02-21T09:58:15;99125.19;;;9.15;73.09
82949;BME280;72736;50.236;18.876;2024-02-21T10:03:21;99122.54;;;9.01;72.68
82949;BME280;72736;50.236;18.876;2024-02-21T10:08:27;99117.73;;;8.87;72.73
82949;BME280;72736;50.236;18.876;2024-02-21T10:13:32;99113.73;;;8.82;72.92
82949;BME280;72736;50.236;18.876;2024-02-21T10:18:38;99108.33;;;8.80;73.06
82949;BME280;72736;50.236;18.876;2024-02-21T10:23:45;99108.66;;;8.78;72.86
82949;BME280;72736;50.236;18.876;2024-02-21T10:28:51;99108.34;;;8.78;72.46
82949;BME280;72736;50.236;18.876;2024-02-21T10:34:00;99105.52;;;8.78;72.42
82949;BME280;72736;50.236;18.876;2024-02-21T10:39:08;99101.20;;;8.83;72.51
82949;BME280;72736;50.236;18.876;2024-02-21T10:44:14;99095.14;;;8.87;72.00
82949;BME280;72736;50.236;18.876;2024-02-21T10:49:24;99092.54;;;8.92;72.03
82949;BME280;72736;50.236;18.876;2024-02-21T10:54:45;99086.09;;;8.96;71.94
82949;BME280;72736;50.236;18.876;2024-02-21T10:59:56;99082.55;;;8.96;71.78
82949;BME280;72736;50.236;18.876;2024-02-21T11:05:05;99077.90;;;8.92;71.17
82949;BME280;72736;50.236;18.876;2024-02-21T11:10:24;99070.60;;;8.88;71.33
82949;BME280;72736;50.236;18.876;2024-02-21T11:15:30;99062.61;;;8.85;71.27
82949;BME280;72736;50.236;18.876;2024-02-21T11:20:37;99046.33;;;8.83;70.96
82949;BME280;72736;50.236;18.876;2024-02-21T11:25:43;99041.35;;;8.80;70.80
82949;BME280;72736;50.236;18.876;2024-02-21T11:30:49;99038.05;;;8.76;70.83
82949;BME280;72736;50.236;18.876;2024-02-21T11:35:54;99035.77;;;8.72;70.53
82949;BME280;72736;50.236;18.876;2024-02-21T11:40:59;99031.05;;;8.67;70.72
82949;BME280;72736;50.236;18.876;2024-02-21T11:46:05;99025.98;;;8.65;70.91
82949;BME280;72736;50.236;18.876;2024-02-21T11:51:12;99024.45;;;8.59;70.85
82949;BME280;72736;50.236;18.876;2024-02-21T11:56:26;99020.26;;;8.51;71.07
82949;BME280;72736;50.236;18.876;2024-02-21T12:01:30;99020.48;;;8.46;71.22
82949;BME280;72736;50.236;18.876;2024-02-21T12:06:37;99016.94;;;8.41;71.75
82949;BME280;72736;50.236;18.876;2024-02-21T12:11:44;99021.09;;;8.36;72.54
82949;BME280;72736;50.236;18.876;2024-02-21T12:16:51;99014.20;;;8.32;73.43
82949;BME280;72736;50.236;18.876;2024-02-21T12:21:58;99016.65;;;8.28;73.59
82949;BME280;72736;50.236;18.876;2024-02-21T12:27:05;99008.20;;;8.21;74.11
82949;BME280;72736;50.236;18.876;2024-02-21T12:32:10;99009.33;;;8.18;74.84
82949;BME280;72736;50.236;18.876;2024-02-21T12:37:16;99005.19;;;8.13;75.28
82949;BME280;72736;50.236;18.876;2024-02-21T12:42:22;98997.77;;;8.03;75.06
82949;BME280;72736;50.236;18.876;2024-02-21T12:47:30;98995.32;;;7.93;75.21
82949;BME280;72736;50.236;18.876;2024-02-21T12:52:36;98997.12;;;7.85;75.60
82949;BME280;72736;50.236;18.876;2024-02-21T12:57:40;98991.42;;;7.81;76.17
82949;BME280;72736;50.236;18.876;2024-02-21T13:02:46;98978.05;;;7.83;76.94
82949;BME280;72736;50.236;18.876;2024-02-21T13:07:52;98969.17;;;7.85;77.06
82949;BME280;72736;50.236;18.876;2024-02-21T13:12:58;98959.75;;;7.87;76.99
82949;BME280;72736;50.236;18.876;2024-02-21T13:18:05;98954.75;;;7.88;76.89
82949;BME280;72736;50.236;18.876;2024-02-21T13:23:10;98945.11;;;7.89;76.96
82949;BME280;72736;50.236;18.876;2024-02-21T13:28:17;98943.11;;;7.91;77.01
82949;BME280;72736;50.236;18.876;2024-02-21T13:33:22;98940.33;;;7.92;76.89
82949;BME280;72736;50.236;18.876;2024-02-21T13:38:28;98929.90;;;7.91;76.89
82949;BME280;72736;50.236;18.876;2024-02-21T13:43:34;98929.54;;;7.91;77.11
82949;BME280;72736;50.236;18.876;2024-02-21T13:48:40;98925.07;;;7.92;77.00
82949;BME280;72736;50.236;18.876;2024-02-21T13:53:45;98926.70;;;7.91;76.96
82949;BME280;72736;50.236;18.876;2024-02-21T13:58:52;98924.80;;;7.88;76.92
82949;BME280;72736;50.236;18.876;2024-02-21T14:03:57;98918.95;;;7.85;76.80
82949;BME280;72736;50.236;18.876;2024-02-21T14:09:03;98906.30;;;7.82;76.67
82949;BME280;72736;50.236;18.876;2024-02-21T14:14:09;98898.74;;;7.83;77.11
82949;BME280;72736;50.236;18.876;2024-02-21T14:19:15;98885.76;;;7.84;77.08
82949;BME280;72736;50.236;18.876;2024-02-21T14:24:22;98878.02;;;7.83;76.84
82949;BME280;72736;50.236;18.876;2024-02-21T14:29:27;98881.08;;;7.83;76.66
82949;BME280;72736;50.236;18.876;2024-02-21T14:34:34;98869.48;;;7.82;76.43
82949;BME280;72736;50.236;18.876;2024-02-21T14:39:39;98852.77;;;7.81;76.10
82949;BME280;72736;50.236;18.876;2024-02-21T14:44:45;98839.73;;;7.80;75.92
82949;BME280;72736;50.236;18.876;2024-02-21T14:49:51;98833.27;;;7.82;75.49
82949;BME280;72736;50.236;18.876;2024-02-21T14:54:56;98837.41;;;7.82;74.82
82949;BME280;72736;50.236;18.876;2024-02-21T15:00:02;98844.80;;;7.76;74.78
82949;BME280;72736;50.236;18.876;2024-02-21T15:05:12;98838.16;;;7.70;74.60
82949;BME280;72736;50.236;18.876;2024-02-21T15:10:17;98841.10;;;7.67;74.43
82949;BME280;72736;50.236;18.876;2024-02-21T15:15:23;98844.48;;;7.63;74.67
82949;BME280;72736;50.236;18.876;2024-02-21T15:20:29;98840.03;;;7.60;74.68
82949;BME280;72736;50.236;18.876;2024-02-21T15:25:34;98834.41;;;7.58;74.69
82949;BME280;72736;50.236;18.876;2024-02-21T15:30:42;98832.48;;;7.58;74.71
82949;BME280;72736;50.236;18.876;2024-02-21T15:35:47;98822.64;;;7.60;74.84
82949;BME280;72736;50.236;18.876;2024-02-21T15:40:53;98800.45;;;7.59;74.70
82949;BME280;72736;50.236;18.876;2024-02-21T15:45:59;98796.55;;;7.61;74.93
82949;BME280;72736;50.236;18.876;2024-02-21T15:51:06;98795.16;;;7.58;74.53
82949;BME280;72736;50.236;18.876;2024-02-21T15:56:12;98802.96;;;7.52;74.68
82949;BME280;72736;50.236;18.876;2024-02-21T16:01:18;98805.52;;;7.46;74.51
82949;BME280;72736;50.236;18.876;2024-02-21T16:06:24;98803.23;;;7.42;74.51
82949;BME280;72736;50.236;18.876;2024-02-21T16:11:30;98801.92;;;7.38;74.56
82949;BME280;72736;50.236;18.876;2024-02-21T16:16:37;98791.58;;;7.34;74.48
82949;BME280;72736;50.236;18.876;2024-02-21T16:21:44;98786.90;;;7.32;74.29
82949;BME280;72736;50.236;18.876;2024-02-21T16:26:50;98782.69;;;7.28;74.47
82949;BME280;72736;50.236;18.876;2024-02-21T16:31:56;98778.10;;;7.23;74.17
82949;BME280;72736;50.236;18.876;2024-02-21T16:37:02;98784.83;;;7.17;74.26
82949;BME280;72736;50.236;18.876;2024-02-21T16:42:09;98787.79;;;7.12;74.33
82949;BME280;72736;50.236;18.876;2024-02-21T16:47:15;98787.31;;;7.09;74.09
82949;BME280;72736;50.236;18.876;2024-02-21T16:52:21;98783.35;;;7.05;74.31
82949;BME280;72736;50.236;18.876;2024-02-21T16:57:27;98783.77;;;7.00;74.34
82949;BME280;72736;50.236;18.876;2024-02-21T17:02:33;98772.19;;;6.97;74.22
82949;BME280;72736;50.236;18.876;2024-02-21T17:07:47;98760.12;;;6.92;74.29
82949;BME280;72736;50.236;18.876;2024-02-21T17:12:53;98754.20;;;6.90;74.40
82949;BME280;72736;50.236;18.876;2024-02-21T17:17:59;98767.58;;;6.88;74.17
82949;BME280;72736;50.236;18.876;2024-02-21T17:23:05;98770.74;;;6.84;74.17
82949;BME280;72736;50.236;18.876;2024-02-21T17:28:10;98767.15;;;6.81;74.27
82949;BME280;72736;50.236;18.876;2024-02-21T17:33:16;98771.61;;;6.79;74.23
82949;BME280;72736;50.236;18.876;2024-02-21T17:38:21;98770.36;;;6.77;74.39
82949;BME280;72736;50.236;18.876;2024-02-21T17:43:27;98762.32;;;6.75;74.23
82949;BME280;72736;50.236;18.876;2024-02-21T17:48:37;98760.16;;;6.72;74.37
82949;BME280;72736;50.236;18.876;2024-02-21T17:53:42;98754.29;;;6.69;74.53
82949;BME280;72736;50.236;18.876;2024-02-21T17:58:48;98751.55;;;6.65;74.30
82949;BME280;72736;50.236;18.876;2024-02-21T18:03:55;98747.79;;;6.62;74.60
82949;BME280;72736;50.236;18.876;2024-02-21T18:08:59;98742.52;;;6.58;74.40
82949;BME280;72736;50.236;18.876;2024-02-21T18:14:05;98738.40;;;6.54;74.46
82949;BME280;72736;50.236;18.876;2024-02-21T18:19:13;98734.77;;;6.51;74.76
82949;BME280;72736;50.236;18.876;2024-02-21T18:24:17;98728.20;;;6.49;74.59
82949;BME280;72736;50.236;18.876;2024-02-21T18:29:23;98718.06;;;6.47;74.60
82949;BME280;72736;50.236;18.876;2024-02-21T18:34:42;98708.92;;;6.45;74.37
82949;BME280;72736;50.236;18.876;2024-02-21T18:39:48;98699.05;;;6.40;74.33
82949;BME280;72736;50.236;18.876;2024-02-21T18:44:54;98688.73;;;6.35;74.72
82949;BME280;72736;50.236;18.876;2024-02-21T18:49:58;98678.84;;;6.34;74.85
82949;BME280;72736;50.236;18.876;2024-02-21T18:55:05;98669.64;;;6.31;74.49
82949;BME280;72736;50.236;18.876;2024-02-21T19:00:14;98661.52;;;6.29;74.41
82949;BME280;72736;50.236;18.876;2024-02-21T19:05:27;98660.14;;;6.26;74.67
82949;BME280;72736;50.236;18.876;2024-02-21T19:10:33;98653.74;;;6.23;74.86
82949;BME280;72736;50.236;18.876;2024-02-21T19:15:39;98648.01;;;6.20;74.64
82949;BME280;72736;50.236;18.876;2024-02-21T19:20:46;98647.27;;;6.17;74.38
82949;BME280;72736;50.236;18.876;2024-02-21T19:25:51;98646.55;;;6.15;74.61
82949;BME280;72736;50.236;18.876;2024-02-21T19:30:57;98642.65;;;6.14;74.57
82949;BME280;72736;50.236;18.876;2024-02-21T19:36:03;98638.62;;;6.12;74.53
82949;BME280;72736;50.236;18.876;2024-02-21T19:41:09;98639.95;;;6.10;74.47
82949;BME280;72736;50.236;18.876;2024-02-21T19:46:15;98634.94;;;6.08;74.62
82949;BME280;72736;50.236;18.876;2024-02-21T19:51:21;98633.86;;;6.05;74.28
82949;BME280;72736;50.236;18.876;2024-02-21T19:56:29;98621.52;;;6.02;74.61
82949;BME280;72736;50.236;18.876;2024-02-21T20:01:33;98625.98;;;6.03;74.42
82949;BME280;72736;50.236;18.876;2024-02-21T20:06:39;98620.70;;;6.03;74.64
82949;BME280;72736;50.236;18.876;2024-02-21T20:11:44;98613.42;;;6.02;74.90
82949;BME280;72736;50.236;18.876;2024-02-21T20:16:50;98606.52;;;5.98;74.51
82949;BME280;72736;50.236;18.876;2024-02-21T20:21:56;98602.98;;;5.97;74.53
82949;BME280;72736;50.236;18.876;2024-02-21T20:27:02;98595.45;;;5.96;74.47
82949;BME280;72736;50.236;18.876;2024-02-21T20:32:08;98595.65;;;5.96;74.44
82949;BME280;72736;50.236;18.876;2024-02-21T20:37:14;98590.04;;;5.92;74.75
82949;BME280;72736;50.236;18.876;2024-02-21T20:42:19;98578.11;;;5.90;74.64
82949;BME280;72736;50.236;18.876;2024-02-21T20:47:28;98576.71;;;5.88;74.72
82949;BME280;72736;50.236;18.876;2024-02-21T20:52:34;98578.25;;;5.86;74.71
82949;BME280;72736;50.236;18.876;2024-02-21T20:57:40;98579.75;;;5.82;74.97
82949;BME280;72736;50.236;18.876;2024-02-21T21:02:46;98577.16;;;5.80;74.63
82949;BME280;72736;50.236;18.876;2024-02-21T21:07:52;98572.00;;;5.78;74.73
82949;BME280;72736;50.236;18.876;2024-02-21T21:12:57;98567.80;;;5.76;75.03
82949;BME280;72736;50.236;18.876;2024-02-21T21:18:06;98555.65;;;5.75;74.94
82949;BME280;72736;50.236;18.876;2024-02-21T21:23:11;98544.23;;;5.73;74.76
82949;BME280;72736;50.236;18.876;2024-02-21T21:28:18;98536.65;;;5.70;74.85
82949;BME280;72736;50.236;18.876;2024-02-21T21:33:24;98529.67;;;5.68;75.16
82949;BME280;72736;50.236;18.876;2024-02-21T21:38:30;98513.59;;;5.66;75.05
82949;BME280;72736;50.236;18.876;2024-02-21T21:43:36;98506.30;;;5.63;74.86
82949;BME280;72736;50.236;18.876;2024-02-21T21:48:44;98491.21;;;5.60;74.97
82949;BME280;72736;50.236;18.876;2024-02-21T21:53:50;98479.77;;;5.59;74.55
82949;BME280;72736;50.236;18.876;2024-02-21T21:58:56;98476.06;;;5.55;74.66
82949;BME280;72736;50.236;18.876;2024-02-21T22:04:02;98473.63;;;5.54;75.04
82949;BME280;72736;50.236;18.876;2024-02-21T22:09:08;98460.19;;;5.54;74.94
82949;BME280;72736;50.236;18.876;2024-02-21T22:14:13;98455.96;;;5.53;74.78
82949;BME280;72736;50.236;18.876;2024-02-21T22:19:19;98441.29;;;5.52;74.97
82949;BME280;72736;50.236;18.876;2024-02-21T22:24:25;98437.11;;;5.52;74.92
82949;BME280;72736;50.236;18.876;2024-02-21T22:29:31;98431.92;;;5.52;74.91
82949;BME280;72736;50.236;18.876;2024-02-21T22:34:35;98424.89;;;5.50;75.01
82949;BME280;72736;50.236;18.876;2024-02-21T22:39:42;98416.09;;;5.49;74.90
82949;BME280;72736;50.236;18.876;2024-02-21T22:44:47;98409.91;;;5.49;74.88
82949;BME280;72736;50.236;18.876;2024-02-21T22:49:53;98401.66;;;5.49;74.95
82949;BME280;72736;50.236;18.876;2024-02-21T22:54:59;98394.26;;;5.49;74.68
82949;BME280;72736;50.236;18.876;2024-02-21T23:00:07;98388.20;;;5.47;74.79
82949;BME280;72736;50.236;18.876;2024-02-21T23:05:13;98377.00;;;5.46;74.70
82949;BME280;72736;50.236;18.876;2024-02-21T23:10:23;98371.94;;;5.44;74.54
82949;BME280;72736;50.236;18.876;2024-02-21T23:15:30;98366.58;;;5.40;74.71
82949;BME280;72736;50.236;18.876;2024-02-21T23:20:36;98358.90;;;5.37;74.82
82949;BME280;72736;50.236;18.876;2024-02-21T23:25:41;98354.11;;;5.34;74.67
82949;BME280;72736;50.236;18.876;2024-02-21T23:30:47;98352.52;;;5.31;74.75
82949;BME280;72736;50.236;18.876;2024-02-21T23:35:53;98348.22;;;5.27;74.46
82949;BME280;72736;50.236;18.876;2024-02-21T23:40:59;98348.46;;;5.21;74.62
82949;BME280;72736;50.236;18.876;2024-02-21T23:46:05;98336.86;;;5.16;74.78
82949;BME280;72736;50.236;18.876;2024-02-21T23:51:10;98331.05;;;5.10;74.64
82949;BME280;72736;50.236;18.876;2024-02-21T23:56:16;98322.08;;;5.04;74.92
